sensor_id;sensor_type;location;lat;lon;timestamp;P1;durP1;ratioP1;P2;durP2;ratioP2
82372;SDS011;72000;42.828;23.382;2023-08-07T00:02:53;3.22;;;1.67;;
82372;SDS011;72000;42.828;23.382;2023-08-07T00:07:44;3.88;;;1.70;;
82372;SDS011;72000;42.828;23.382;2023-08-07T00:12:35;4.60;;;1.90;;
82372;SDS011;72000;42.828;23.382;2023-08-07T00:17:27;4.03;;;2.17;;
82372;SDS011;72000;42.828;23.382;2023-08-07T00:19:53;4.43;;;2.47;;
82372;SDS011;72000;42.828;23.382;2023-08-07T00:24:44;3.72;;;2.13;;
82372;SDS011;72000;42.828;23.382;2023-08-07T00:27:09;4.35;;;2.28;;
82372;SDS011;72000;42.828;23.382;2023-08-07T00:29:36;4.43;;;2.60;;
82372;SDS011;72000;42.828;23.382;2023-08-07T00:32:02;4.50;;;2.67;;
82372;SDS011;72000;42.828;23.382;2023-08-07T00:34:29;4.43;;;2.80;;
82372;SDS011;72000;42.828;23.382;2023-08-07T00:39:20;4.40;;;2.70;;
82372;SDS011;72000;42.828;23.382;2023-08-07T00:44:11;5.10;;;2.53;;
82372;SDS011;72000;42.828;23.382;2023-08-07T00:49:04;4.22;;;2.60;;
82372;SDS011;72000;42.828;23.382;2023-08-07T00:51:31;4.10;;;2.40;;
82372;SDS011;72000;42.828;23.382;2023-08-07T00:53:57;5.03;;;2.50;;
82372;SDS011;72000;42.828;23.382;2023-08-07T00:56:25;5.80;;;2.60;;
82372;SDS011;72000;42.828;23.382;2023-08-07T00:58:51;4.55;;;2.70;;
82372;SDS011;72000;42.828;23.382;2023-08-07T01:01:16;4.50;;;2.63;;
82372;SDS011;72000;42.828;23.382;2023-08-07T01:06:08;4.35;;;2.53;;
82372;SDS011;72000;42.828;23.382;2023-08-07T01:16:01;4.15;;;2.42;;
82372;SDS011;72000;42.828;23.382;2023-08-07T01:18:32;3.90;;;2.30;;
82372;SDS011;72000;42.828;23.382;2023-08-07T01:21:00;5.00;;;2.53;;
82372;SDS011;72000;42.828;23.382;2023-08-07T01:23:28;3.92;;;2.40;;
82372;SDS011;72000;42.828;23.382;2023-08-07T01:25:54;4.00;;;2.35;;
82372;SDS011;72000;42.828;23.382;2023-08-07T01:30:54;4.47;;;2.25;;
82372;SDS011;72000;42.828;23.382;2023-08-07T01:35:57;4.30;;;2.50;;
82372;SDS011;72000;42.828;23.382;2023-08-07T01:38:24;7.32;;;2.70;;
82372;SDS011;72000;42.828;23.382;2023-08-07T01:40:51;4.47;;;2.67;;
82372;SDS011;72000;42.828;23.382;2023-08-07T01:43:18;4.20;;;2.42;;
82372;SDS011;72000;42.828;23.382;2023-08-07T01:45:44;4.82;;;2.60;;
82372;SDS011;72000;42.828;23.382;2023-08-07T01:48:10;4.35;;;2.47;;
82372;SDS011;72000;42.828;23.382;2023-08-07T01:50:37;4.63;;;2.80;;
82372;SDS011;72000;42.828;23.382;2023-08-07T01:53:03;4.68;;;2.70;;
82372;SDS011;72000;42.828;23.382;2023-08-07T01:55:29;4.82;;;2.78;;
82372;SDS011;72000;42.828;23.382;2023-08-07T01:57:55;4.78;;;2.60;;
82372;SDS011;72000;42.828;23.382;2023-08-07T02:02:46;4.65;;;2.70;;
82372;SDS011;72000;42.828;23.382;2023-08-07T02:07:38;5.22;;;2.80;;
82372;SDS011;72000;42.828;23.382;2023-08-07T02:12:29;5.90;;;2.90;;
82372;SDS011;72000;42.828;23.382;2023-08-07T02:14:57;4.07;;;2.33;;
82372;SDS011;72000;42.828;23.382;2023-08-07T02:17:24;4.75;;;2.70;;
82372;SDS011;72000;42.828;23.382;2023-08-07T02:19:50;4.28;;;2.70;;
82372;SDS011;72000;42.828;23.382;2023-08-07T02:22:16;4.90;;;2.72;;
82372;SDS011;72000;42.828;23.382;2023-08-07T02:24:42;4.90;;;2.90;;
82372;SDS011;72000;42.828;23.382;2023-08-07T02:27:08;5.25;;;2.60;;
82372;SDS011;72000;42.828;23.382;2023-08-07T02:32:02;5.30;;;2.70;;
82372;SDS011;72000;42.828;23.382;2023-08-07T02:34:29;4.82;;;2.70;;
82372;SDS011;72000;42.828;23.382;2023-08-07T02:36:55;4.15;;;2.22;;
82372;SDS011;72000;42.828;23.382;2023-08-07T02:39:21;4.22;;;2.50;;
82372;SDS011;72000;42.828;23.382;2023-08-07T02:41:46;3.85;;;2.25;;
82372;SDS011;72000;42.828;23.382;2023-08-07T02:44:12;3.92;;;2.30;;
82372;SDS011;72000;42.828;23.382;2023-08-07T02:49:03;4.43;;;2.25;;
82372;SDS011;72000;42.828;23.382;2023-08-07T02:51:30;4.40;;;2.10;;
82372;SDS011;72000;42.828;23.382;2023-08-07T02:53:56;4.38;;;2.30;;
82372;SDS011;72000;42.828;23.382;2023-08-07T02:56:21;5.35;;;2.30;;
82372;SDS011;72000;42.828;23.382;2023-08-07T02:58:47;4.20;;;2.20;;
82372;SDS011;72000;42.828;23.382;2023-08-07T03:03:38;3.90;;;2.20;;
82372;SDS011;72000;42.828;23.382;2023-08-07T03:06:04;4.22;;;2.38;;
82372;SDS011;72000;42.828;23.382;2023-08-07T03:08:30;4.20;;;2.38;;
82372;SDS011;72000;42.828;23.382;2023-08-07T03:10:56;3.90;;;2.28;;
82372;SDS011;72000;42.828;23.382;2023-08-07T03:13:23;3.90;;;2.40;;
82372;SDS011;72000;42.828;23.382;2023-08-07T03:15:49;4.20;;;2.20;;
82372;SDS011;72000;42.828;23.382;2023-08-07T03:18:16;4.18;;;2.45;;
82372;SDS011;72000;42.828;23.382;2023-08-07T03:20:42;3.53;;;2.00;;
82372;SDS011;72000;42.828;23.382;2023-08-07T03:23:11;4.10;;;2.50;;
82372;SDS011;72000;42.828;23.382;2023-08-07T03:25:37;5.15;;;2.53;;
82372;SDS011;72000;42.828;23.382;2023-08-07T03:28:03;4.22;;;2.53;;
82372;SDS011;72000;42.828;23.382;2023-08-07T03:30:28;4.60;;;2.58;;
82372;SDS011;72000;42.828;23.382;2023-08-07T03:32:54;4.60;;;2.22;;
82372;SDS011;72000;42.828;23.382;2023-08-07T03:35:20;4.32;;;2.60;;
82372;SDS011;72000;42.828;23.382;2023-08-07T03:37:46;4.50;;;2.50;;
82372;SDS011;72000;42.828;23.382;2023-08-07T03:40:11;5.57;;;2.70;;
82372;SDS011;72000;42.828;23.382;2023-08-07T03:42:37;4.72;;;2.80;;
82372;SDS011;72000;42.828;23.382;2023-08-07T03:45:03;5.80;;;2.80;;
82372;SDS011;72000;42.828;23.382;2023-08-07T03:47:29;5.63;;;2.80;;
82372;SDS011;72000;42.828;23.382;2023-08-07T03:49:54;4.25;;;2.65;;
82372;SDS011;72000;42.828;23.382;2023-08-07T03:52:20;4.95;;;2.63;;
82372;SDS011;72000;42.828;23.382;2023-08-07T03:54:45;5.68;;;2.97;;
82372;SDS011;72000;42.828;23.382;2023-08-07T03:57:11;6.28;;;3.08;;
82372;SDS011;72000;42.828;23.382;2023-08-07T03:59:37;4.93;;;2.63;;
82372;SDS011;72000;42.828;23.382;2023-08-07T04:02:03;5.47;;;2.85;;
82372;SDS011;72000;42.828;23.382;2023-08-07T04:04:29;4.97;;;2.90;;
82372;SDS011;72000;42.828;23.382;2023-08-07T04:06:54;4.90;;;2.70;;
82372;SDS011;72000;42.828;23.382;2023-08-07T04:09:20;5.47;;;2.92;;
82372;SDS011;72000;42.828;23.382;2023-08-07T04:11:45;4.95;;;2.83;;
82372;SDS011;72000;42.828;23.382;2023-08-07T04:14:11;6.65;;;3.10;;
82372;SDS011;72000;42.828;23.382;2023-08-07T04:16:37;5.32;;;2.90;;
82372;SDS011;72000;42.828;23.382;2023-08-07T04:19:03;5.53;;;2.85;;
82372;SDS011;72000;42.828;23.382;2023-08-07T04:21:31;6.97;;;2.90;;
82372;SDS011;72000;42.828;23.382;2023-08-07T04:23:57;5.03;;;2.53;;
82372;SDS011;72000;42.828;23.382;2023-08-07T04:26:25;5.80;;;2.83;;
82372;SDS011;72000;42.828;23.382;2023-08-07T04:28:51;5.32;;;2.90;;
82372;SDS011;72000;42.828;23.382;2023-08-07T04:31:17;7.03;;;2.90;;
82372;SDS011;72000;42.828;23.382;2023-08-07T04:33:42;6.10;;;3.10;;
82372;SDS011;72000;42.828;23.382;2023-08-07T04:36:08;5.18;;;3.05;;
82372;SDS011;72000;42.828;23.382;2023-08-07T04:38:34;5.75;;;3.30;;
82372;SDS011;72000;42.828;23.382;2023-08-07T04:40:59;6.65;;;3.67;;
82372;SDS011;72000;42.828;23.382;2023-08-07T04:43:25;6.47;;;3.47;;
82372;SDS011;72000;42.828;23.382;2023-08-07T04:45:53;6.13;;;3.40;;
82372;SDS011;72000;42.828;23.382;2023-08-07T04:48:18;7.20;;;3.55;;
82372;SDS011;72000;42.828;23.382;2023-08-07T04:50:46;6.95;;;3.55;;
82372;SDS011;72000;42.828;23.382;2023-08-07T04:53:11;7.07;;;3.30;;
82372;SDS011;72000;42.828;23.382;2023-08-07T04:55:38;6.38;;;3.42;;
82372;SDS011;72000;42.828;23.382;2023-08-07T04:58:04;5.82;;;3.22;;
82372;SDS011;72000;42.828;23.382;2023-08-07T05:00:29;5.40;;;3.03;;
82372;SDS011;72000;42.828;23.382;2023-08-07T05:02:55;6.82;;;3.08;;
82372;SDS011;72000;42.828;23.382;2023-08-07T05:07:47;5.55;;;2.92;;
82372;SDS011;72000;42.828;23.382;2023-08-07T05:10:13;7.82;;;3.20;;
82372;SDS011;72000;42.828;23.382;2023-08-07T05:12:39;4.88;;;2.72;;
82372;SDS011;72000;42.828;23.382;2023-08-07T05:17:31;8.93;;;3.05;;
82372;SDS011;72000;42.828;23.382;2023-08-07T05:19:57;6.10;;;2.75;;
82372;SDS011;72000;42.828;23.382;2023-08-07T05:22:22;4.22;;;2.50;;
82372;SDS011;72000;42.828;23.382;2023-08-07T05:24:48;4.88;;;2.70;;
82372;SDS011;72000;42.828;23.382;2023-08-07T05:27:14;6.05;;;2.80;;
82372;SDS011;72000;42.828;23.382;2023-08-07T05:29:40;5.70;;;2.67;;
82372;SDS011;72000;42.828;23.382;2023-08-07T05:32:09;5.60;;;2.80;;
82372;SDS011;72000;42.828;23.382;2023-08-07T05:34:38;4.40;;;2.50;;
82372;SDS011;72000;42.828;23.382;2023-08-07T05:37:04;5.85;;;2.90;;
82372;SDS011;72000;42.828;23.382;2023-08-07T05:39:31;6.57;;;2.75;;
82372;SDS011;72000;42.828;23.382;2023-08-07T05:41:56;5.20;;;2.45;;
82372;SDS011;72000;42.828;23.382;2023-08-07T05:44:23;4.22;;;2.35;;
82372;SDS011;72000;42.828;23.382;2023-08-07T05:46:49;5.20;;;2.30;;
82372;SDS011;72000;42.828;23.382;2023-08-07T05:49:15;5.63;;;2.60;;
82372;SDS011;72000;42.828;23.382;2023-08-07T05:54:06;5.38;;;2.55;;
82372;SDS011;72000;42.828;23.382;2023-08-07T05:58:58;6.25;;;2.83;;
82372;SDS011;72000;42.828;23.382;2023-08-07T06:03:54;4.32;;;2.35;;
82372;SDS011;72000;42.828;23.382;2023-08-07T06:06:20;5.53;;;2.40;;
82372;SDS011;72000;42.828;23.382;2023-08-07T06:11:11;4.60;;;2.35;;
82372;SDS011;72000;42.828;23.382;2023-08-07T06:16:03;5.85;;;2.25;;
82372;SDS011;72000;42.828;23.382;2023-08-07T06:20:55;4.72;;;2.50;;
82372;SDS011;72000;42.828;23.382;2023-08-07T06:23:21;4.38;;;2.20;;
82372;SDS011;72000;42.828;23.382;2023-08-07T06:28:12;6.32;;;2.22;;
82372;SDS011;72000;42.828;23.382;2023-08-07T06:33:04;3.95;;;2.28;;
82372;SDS011;72000;42.828;23.382;2023-08-07T06:37:55;4.38;;;2.13;;
82372;SDS011;72000;42.828;23.382;2023-08-07T06:42:46;3.97;;;2.17;;
82372;SDS011;72000;42.828;23.382;2023-08-07T06:47:37;3.63;;;1.92;;
82372;SDS011;72000;42.828;23.382;2023-08-07T06:52:29;3.80;;;2.10;;
82372;SDS011;72000;42.828;23.382;2023-08-07T06:57:20;3.47;;;1.90;;
82372;SDS011;72000;42.828;23.382;2023-08-07T07:02:11;5.65;;;2.78;;
82372;SDS011;72000;42.828;23.382;2023-08-07T07:04:37;3.85;;;2.05;;
82372;SDS011;72000;42.828;23.382;2023-08-07T07:09:28;4.30;;;2.05;;
82372;SDS011;72000;42.828;23.382;2023-08-07T07:14:20;3.58;;;2.00;;
82372;SDS011;72000;42.828;23.382;2023-08-07T07:16:46;3.75;;;2.10;;
82372;SDS011;72000;42.828;23.382;2023-08-07T07:21:38;3.97;;;2.22;;
82372;SDS011;72000;42.828;23.382;2023-08-07T07:24:03;4.20;;;2.20;;
82372;SDS011;72000;42.828;23.382;2023-08-07T07:26:30;3.70;;;2.05;;
82372;SDS011;72000;42.828;23.382;2023-08-07T07:31:21;3.80;;;1.98;;
82372;SDS011;72000;42.828;23.382;2023-08-07T07:33:47;4.97;;;1.88;;
82372;SDS011;72000;42.828;23.382;2023-08-07T07:36:16;3.85;;;2.20;;
82372;SDS011;72000;42.828;23.382;2023-08-07T07:38:43;4.00;;;2.10;;
82372;SDS011;72000;42.828;23.382;2023-08-07T07:41:10;3.42;;;2.03;;
82372;SDS011;72000;42.828;23.382;2023-08-07T07:43:36;5.07;;;2.20;;
82372;SDS011;72000;42.828;23.382;2023-08-07T07:46:03;4.32;;;2.42;;
82372;SDS011;72000;42.828;23.382;2023-08-07T07:48:29;4.35;;;1.88;;
82372;SDS011;72000;42.828;23.382;2023-08-07T07:53:23;3.78;;;1.90;;
82372;SDS011;72000;42.828;23.382;2023-08-07T07:58:15;3.83;;;2.05;;
82372;SDS011;72000;42.828;23.382;2023-08-07T08:00:40;4.40;;;2.15;;
82372;SDS011;72000;42.828;23.382;2023-08-07T08:03:07;3.20;;;1.70;;
82372;SDS011;72000;42.828;23.382;2023-08-07T08:05:33;6.82;;;2.10;;
82372;SDS011;72000;42.828;23.382;2023-08-07T08:08:00;4.82;;;2.00;;
82372;SDS011;72000;42.828;23.382;2023-08-07T08:10:26;3.70;;;2.08;;
82372;SDS011;72000;42.828;23.382;2023-08-07T08:12:55;4.07;;;2.10;;
82372;SDS011;72000;42.828;23.382;2023-08-07T08:15:21;4.22;;;1.80;;
82372;SDS011;72000;42.828;23.382;2023-08-07T08:20:13;3.75;;;1.92;;
82372;SDS011;72000;42.828;23.382;2023-08-07T08:22:46;3.55;;;2.05;;
82372;SDS011;72000;42.828;23.382;2023-08-07T08:25:12;3.53;;;1.88;;
82372;SDS011;72000;42.828;23.382;2023-08-07T08:27:38;3.28;;;1.80;;
82372;SDS011;72000;42.828;23.382;2023-08-07T08:30:05;3.42;;;1.75;;
82372;SDS011;72000;42.828;23.382;2023-08-07T08:32:31;4.47;;;2.20;;
82372;SDS011;72000;42.828;23.382;2023-08-07T08:34:57;3.88;;;1.90;;
82372;SDS011;72000;42.828;23.382;2023-08-07T08:37:23;5.15;;;1.80;;
82372;SDS011;72000;42.828;23.382;2023-08-07T08:39:49;4.50;;;1.85;;
82372;SDS011;72000;42.828;23.382;2023-08-07T08:42:15;3.63;;;1.70;;
82372;SDS011;72000;42.828;23.382;2023-08-07T08:44:46;3.97;;;1.90;;
82372;SDS011;72000;42.828;23.382;2023-08-07T08:47:16;4.07;;;1.60;;
82372;SDS011;72000;42.828;23.382;2023-08-07T08:49:56;4.78;;;1.77;;
82372;SDS011;72000;42.828;23.382;2023-08-07T08:52:28;4.15;;;1.70;;
82372;SDS011;72000;42.828;23.382;2023-08-07T08:54:54;3.17;;;1.70;;
82372;SDS011;72000;42.828;23.382;2023-08-07T08:57:21;3.85;;;1.80;;
82372;SDS011;72000;42.828;23.382;2023-08-07T08:59:47;4.60;;;1.58;;
82372;SDS011;72000;42.828;23.382;2023-08-07T09:02:15;3.15;;;1.70;;
82372;SDS011;72000;42.828;23.382;2023-08-07T09:04:41;3.95;;;1.70;;
82372;SDS011;72000;42.828;23.382;2023-08-07T09:07:07;3.75;;;1.70;;
82372;SDS011;72000;42.828;23.382;2023-08-07T09:09:33;3.97;;;1.67;;
82372;SDS011;72000;42.828;23.382;2023-08-07T09:11:59;6.07;;;1.70;;
82372;SDS011;72000;42.828;23.382;2023-08-07T09:14:26;3.80;;;1.58;;
82372;SDS011;72000;42.828;23.382;2023-08-07T09:16:55;2.97;;;1.70;;
82372;SDS011;72000;42.828;23.382;2023-08-07T09:19:24;3.50;;;1.60;;
82372;SDS011;72000;42.828;23.382;2023-08-07T09:21:50;3.00;;;1.60;;
82372;SDS011;72000;42.828;23.382;2023-08-07T09:24:15;5.00;;;1.50;;
82372;SDS011;72000;42.828;23.382;2023-08-07T09:26:43;3.03;;;1.42;;
82372;SDS011;72000;42.828;23.382;2023-08-07T09:29:09;2.95;;;1.50;;
82372;SDS011;72000;42.828;23.382;2023-08-07T09:31:36;2.85;;;1.48;;
82372;SDS011;72000;42.828;23.382;2023-08-07T09:34:02;3.55;;;1.42;;
82372;SDS011;72000;42.828;23.382;2023-08-07T09:36:33;2.88;;;1.42;;
82372;SDS011;72000;42.828;23.382;2023-08-07T09:39:02;3.38;;;1.55;;
82372;SDS011;72000;42.828;23.382;2023-08-07T09:41:28;2.90;;;1.58;;
82372;SDS011;72000;42.828;23.382;2023-08-07T09:43:55;3.78;;;1.50;;
82372;SDS011;72000;42.828;23.382;2023-08-07T09:46:22;2.92;;;1.25;;
82372;SDS011;72000;42.828;23.382;2023-08-07T09:48:48;3.10;;;1.40;;
82372;SDS011;72000;42.828;23.382;2023-08-07T09:51:14;2.67;;;1.20;;
82372;SDS011;72000;42.828;23.382;2023-08-07T09:53:40;4.72;;;1.60;;
82372;SDS011;72000;42.828;23.382;2023-08-07T09:56:05;2.75;;;1.30;;
82372;SDS011;72000;42.828;23.382;2023-08-07T09:58:31;3.10;;;1.20;;
82372;SDS011;72000;42.828;23.382;2023-08-07T10:01:00;4.85;;;1.40;;
82372;SDS011;72000;42.828;23.382;2023-08-07T10:03:28;2.50;;;1.30;;
82372;SDS011;72000;42.828;23.382;2023-08-07T10:05:54;2.53;;;1.40;;
82372;SDS011;72000;42.828;23.382;2023-08-07T10:08:20;3.72;;;1.02;;
82372;SDS011;72000;42.828;23.382;2023-08-07T10:10:47;2.22;;;1.40;;
82372;SDS011;72000;42.828;23.382;2023-08-07T10:13:13;2.92;;;1.23;;
82372;SDS011;72000;42.828;23.382;2023-08-07T10:15:39;2.28;;;1.20;;
82372;SDS011;72000;42.828;23.382;2023-08-07T10:18:07;2.03;;;1.20;;
82372;SDS011;72000;42.828;23.382;2023-08-07T10:20:36;2.10;;;1.05;;
82372;SDS011;72000;42.828;23.382;2023-08-07T10:23:08;3.20;;;1.40;;
82372;SDS011;72000;42.828;23.382;2023-08-07T10:25:40;2.47;;;1.13;;
82372;SDS011;72000;42.828;23.382;2023-08-07T10:28:08;2.20;;;1.13;;
82372;SDS011;72000;42.828;23.382;2023-08-07T10:30:36;3.78;;;1.33;;
82372;SDS011;72000;42.828;23.382;2023-08-07T10:33:03;2.15;;;1.20;;
82372;SDS011;72000;42.828;23.382;2023-08-07T10:35:32;3.30;;;1.13;;
82372;SDS011;72000;42.828;23.382;2023-08-07T10:38:08;2.17;;;1.02;;
82372;SDS011;72000;42.828;23.382;2023-08-07T10:40:57;2.35;;;1.00;;
82372;SDS011;72000;42.828;23.382;2023-08-07T10:43:27;3.30;;;1.25;;
82372;SDS011;72000;42.828;23.382;2023-08-07T10:45:54;2.20;;;1.30;;
82372;SDS011;72000;42.828;23.382;2023-08-07T10:48:26;2.08;;;1.10;;
82372;SDS011;72000;42.828;23.382;2023-08-07T10:53:28;2.58;;;1.30;;
82372;SDS011;72000;42.828;23.382;2023-08-07T10:56:04;1.90;;;1.23;;
82372;SDS011;72000;42.828;23.382;2023-08-07T11:03:53;1.83;;;1.10;;
82372;SDS011;72000;42.828;23.382;2023-08-07T11:06:27;1.98;;;1.10;;
82372;SDS011;72000;42.828;23.382;2023-08-07T11:08:56;1.92;;;1.15;;
82372;SDS011;72000;42.828;23.382;2023-08-07T11:11:21;2.15;;;1.30;;
82372;SDS011;72000;42.828;23.382;2023-08-07T11:13:47;2.53;;;1.10;;
82372;SDS011;72000;42.828;23.382;2023-08-07T11:16:13;2.33;;;1.30;;
82372;SDS011;72000;42.828;23.382;2023-08-07T11:18:39;2.67;;;1.40;;
82372;SDS011;72000;42.828;23.382;2023-08-07T11:21:09;2.60;;;1.50;;
82372;SDS011;72000;42.828;23.382;2023-08-07T11:23:36;3.38;;;1.13;;
82372;SDS011;72000;42.828;23.382;2023-08-07T11:26:02;2.30;;;1.27;;
82372;SDS011;72000;42.828;23.382;2023-08-07T11:28:28;1.52;;;1.00;;
82372;SDS011;72000;42.828;23.382;2023-08-07T11:30:54;2.70;;;1.30;;
82372;SDS011;72000;42.828;23.382;2023-08-07T11:33:22;2.55;;;1.45;;
82372;SDS011;72000;42.828;23.382;2023-08-07T11:35:49;2.10;;;1.23;;
82372;SDS011;72000;42.828;23.382;2023-08-07T11:38:37;2.60;;;1.30;;
82372;SDS011;72000;42.828;23.382;2023-08-07T11:41:05;2.50;;;1.60;;
82372;SDS011;72000;42.828;23.382;2023-08-07T11:43:32;2.45;;;1.30;;
82372;SDS011;72000;42.828;23.382;2023-08-07T11:46:00;2.83;;;1.50;;
82372;SDS011;72000;42.828;23.382;2023-08-07T11:48:28;3.05;;;1.60;;
82372;SDS011;72000;42.828;23.382;2023-08-07T11:50:55;3.13;;;1.40;;
82372;SDS011;72000;42.828;23.382;2023-08-07T11:53:23;2.13;;;1.30;;
82372;SDS011;72000;42.828;23.382;2023-08-07T11:55:53;3.38;;;1.30;;
82372;SDS011;72000;42.828;23.382;2023-08-07T11:58:22;2.20;;;1.30;;
82372;SDS011;72000;42.828;23.382;2023-08-07T12:00:50;2.65;;;1.45;;
82372;SDS011;72000;42.828;23.382;2023-08-07T12:03:29;2.33;;;1.40;;
82372;SDS011;72000;42.828;23.382;2023-08-07T12:05:57;2.75;;;1.38;;
82372;SDS011;72000;42.828;23.382;2023-08-07T12:08:24;2.70;;;1.40;;
82372;SDS011;72000;42.828;23.382;2023-08-07T12:10:56;2.33;;;1.30;;
82372;SDS011;72000;42.828;23.382;2023-08-07T12:13:25;3.50;;;1.30;;
82372;SDS011;72000;42.828;23.382;2023-08-07T12:15:55;2.28;;;1.40;;
82372;SDS011;72000;42.828;23.382;2023-08-07T12:18:21;2.40;;;1.20;;
82372;SDS011;72000;42.828;23.382;2023-08-07T12:20:51;2.17;;;1.30;;
82372;SDS011;72000;42.828;23.382;2023-08-07T12:23:20;2.17;;;1.33;;
82372;SDS011;72000;42.828;23.382;2023-08-07T12:25:47;2.10;;;1.25;;
82372;SDS011;72000;42.828;23.382;2023-08-07T12:28:13;2.58;;;1.33;;
82372;SDS011;72000;42.828;23.382;2023-08-07T12:30:40;2.17;;;1.30;;
82372;SDS011;72000;42.828;23.382;2023-08-07T12:33:08;3.03;;;1.50;;
82372;SDS011;72000;42.828;23.382;2023-08-07T12:35:34;2.25;;;1.30;;
82372;SDS011;72000;42.828;23.382;2023-08-07T12:38:00;2.00;;;1.30;;
82372;SDS011;72000;42.828;23.382;2023-08-07T12:40:27;2.42;;;1.30;;
82372;SDS011;72000;42.828;23.382;2023-08-07T12:42:54;2.40;;;1.52;;
82372;SDS011;72000;42.828;23.382;2023-08-07T12:45:19;3.28;;;1.48;;
82372;SDS011;72000;42.828;23.382;2023-08-07T12:47:45;2.53;;;1.40;;
82372;SDS011;72000;42.828;23.382;2023-08-07T12:50:11;2.20;;;1.30;;
82372;SDS011;72000;42.828;23.382;2023-08-07T12:52:37;2.13;;;1.23;;
82372;SDS011;72000;42.828;23.382;2023-08-07T12:55:03;2.22;;;1.30;;
82372;SDS011;72000;42.828;23.382;2023-08-07T12:57:31;2.92;;;1.40;;
82372;SDS011;72000;42.828;23.382;2023-08-07T12:59:57;2.53;;;1.38;;
82372;SDS011;72000;42.828;23.382;2023-08-07T13:02:22;3.78;;;1.40;;
82372;SDS011;72000;42.828;23.382;2023-08-07T13:04:48;2.55;;;1.58;;
82372;SDS011;72000;42.828;23.382;2023-08-07T13:07:14;3.10;;;1.58;;
82372;SDS011;72000;42.828;23.382;2023-08-07T13:09:40;2.67;;;1.50;;
82372;SDS011;72000;42.828;23.382;2023-08-07T13:12:06;3.05;;;1.55;;
82372;SDS011;72000;42.828;23.382;2023-08-07T13:14:32;3.55;;;1.50;;
82372;SDS011;72000;42.828;23.382;2023-08-07T13:16:57;2.95;;;1.60;;
82372;SDS011;72000;42.828;23.382;2023-08-07T13:19:23;2.55;;;1.33;;
82372;SDS011;72000;42.828;23.382;2023-08-07T13:21:49;2.65;;;1.42;;
82372;SDS011;72000;42.828;23.382;2023-08-07T13:24:14;2.80;;;1.65;;
82372;SDS011;72000;42.828;23.382;2023-08-07T13:26:40;2.33;;;1.50;;
82372;SDS011;72000;42.828;23.382;2023-08-07T13:29:10;2.70;;;1.58;;
82372;SDS011;72000;42.828;23.382;2023-08-07T13:31:36;2.40;;;1.50;;
82372;SDS011;72000;42.828;23.382;2023-08-07T13:34:02;4.57;;;1.52;;
82372;SDS011;72000;42.828;23.382;2023-08-07T13:36:33;2.55;;;1.40;;
82372;SDS011;72000;42.828;23.382;2023-08-07T13:39:00;4.88;;;1.83;;
82372;SDS011;72000;42.828;23.382;2023-08-07T13:41:27;2.88;;;1.60;;
82372;SDS011;72000;42.828;23.382;2023-08-07T13:43:52;2.67;;;1.52;;
82372;SDS011;72000;42.828;23.382;2023-08-07T13:46:18;2.83;;;1.50;;
82372;SDS011;72000;42.828;23.382;2023-08-07T13:48:44;3.97;;;1.50;;
82372;SDS011;72000;42.828;23.382;2023-08-07T13:51:10;3.17;;;1.65;;
82372;SDS011;72000;42.828;23.382;2023-08-07T13:53:36;5.43;;;1.50;;
82372;SDS011;72000;42.828;23.382;2023-08-07T13:56:02;3.63;;;1.70;;
82372;SDS011;72000;42.828;23.382;2023-08-07T13:58:28;2.60;;;1.48;;
82372;SDS011;72000;42.828;23.382;2023-08-07T14:00:55;3.25;;;1.50;;
82372;SDS011;72000;42.828;23.382;2023-08-07T14:03:21;2.83;;;1.60;;
82372;SDS011;72000;42.828;23.382;2023-08-07T14:05:47;3.53;;;1.55;;
82372;SDS011;72000;42.828;23.382;2023-08-07T14:08:13;3.25;;;1.42;;
82372;SDS011;72000;42.828;23.382;2023-08-07T14:10:39;3.28;;;1.60;;
82372;SDS011;72000;42.828;23.382;2023-08-07T14:13:06;3.15;;;1.70;;
82372;SDS011;72000;42.828;23.382;2023-08-07T14:15:32;2.80;;;1.50;;
82372;SDS011;72000;42.828;23.382;2023-08-07T14:17:57;3.10;;;1.50;;
82372;SDS011;72000;42.828;23.382;2023-08-07T14:20:24;3.40;;;1.42;;
82372;SDS011;72000;42.828;23.382;2023-08-07T14:22:50;3.20;;;1.58;;
82372;SDS011;72000;42.828;23.382;2023-08-07T14:25:16;2.20;;;1.30;;
82372;SDS011;72000;42.828;23.382;2023-08-07T14:27:42;2.67;;;1.48;;
82372;SDS011;72000;42.828;23.382;2023-08-07T14:30:08;2.40;;;1.23;;
82372;SDS011;72000;42.828;23.382;2023-08-07T14:32:33;3.08;;;1.50;;
82372;SDS011;72000;42.828;23.382;2023-08-07T14:34:59;3.80;;;1.35;;
82372;SDS011;72000;42.828;23.382;2023-08-07T14:37:25;2.40;;;1.40;;
82372;SDS011;72000;42.828;23.382;2023-08-07T14:39:51;3.08;;;1.50;;
82372;SDS011;72000;42.828;23.382;2023-08-07T14:42:16;3.40;;;1.60;;
82372;SDS011;72000;42.828;23.382;2023-08-07T14:44:42;2.58;;;1.33;;
82372;SDS011;72000;42.828;23.382;2023-08-07T14:47:08;5.30;;;1.60;;
82372;SDS011;72000;42.828;23.382;2023-08-07T14:49:33;2.88;;;1.40;;
82372;SDS011;72000;42.828;23.382;2023-08-07T14:51:59;3.10;;;1.60;;
82372;SDS011;72000;42.828;23.382;2023-08-07T14:54:25;2.75;;;1.50;;
82372;SDS011;72000;42.828;23.382;2023-08-07T14:56:50;4.38;;;1.40;;
82372;SDS011;72000;42.828;23.382;2023-08-07T14:59:16;4.35;;;1.50;;
82372;SDS011;72000;42.828;23.382;2023-08-07T15:01:42;3.85;;;1.45;;
82372;SDS011;72000;42.828;23.382;2023-08-07T15:04:08;3.15;;;1.40;;
82372;SDS011;72000;42.828;23.382;2023-08-07T15:06:35;2.33;;;1.23;;
82372;SDS011;72000;42.828;23.382;2023-08-07T15:09:01;4.05;;;1.38;;
82372;SDS011;72000;42.828;23.382;2023-08-07T15:11:26;2.80;;;1.25;;
82372;SDS011;72000;42.828;23.382;2023-08-07T15:13:52;2.72;;;1.30;;
82372;SDS011;72000;42.828;23.382;2023-08-07T15:16:18;2.33;;;1.30;;
82372;SDS011;72000;42.828;23.382;2023-08-07T15:18:44;3.25;;;1.30;;
82372;SDS011;72000;42.828;23.382;2023-08-07T15:21:10;2.63;;;1.10;;
82372;SDS011;72000;42.828;23.382;2023-08-07T15:23:36;3.08;;;1.10;;
82372;SDS011;72000;42.828;23.382;2023-08-07T15:26:02;3.45;;;1.23;;
82372;SDS011;72000;42.828;23.382;2023-08-07T15:28:28;3.17;;;1.20;;
82372;SDS011;72000;42.828;23.382;2023-08-07T15:30:53;3.28;;;1.30;;
82372;SDS011;72000;42.828;23.382;2023-08-07T15:33:19;2.15;;;1.13;;
82372;SDS011;72000;42.828;23.382;2023-08-07T15:35:45;2.72;;;1.20;;
82372;SDS011;72000;42.828;23.382;2023-08-07T15:38:11;2.33;;;1.20;;
82372;SDS011;72000;42.828;23.382;2023-08-07T15:40:38;2.90;;;1.40;;
82372;SDS011;72000;42.828;23.382;2023-08-07T15:43:05;2.70;;;1.20;;
82372;SDS011;72000;42.828;23.382;2023-08-07T15:45:32;2.35;;;1.20;;
82372;SDS011;72000;42.828;23.382;2023-08-07T15:47:57;2.45;;;1.20;;
82372;SDS011;72000;42.828;23.382;2023-08-07T15:50:23;2.58;;;1.15;;
82372;SDS011;72000;42.828;23.382;2023-08-07T15:52:49;2.58;;;1.20;;
82372;SDS011;72000;42.828;23.382;2023-08-07T15:55:15;2.20;;;1.10;;
82372;SDS011;72000;42.828;23.382;2023-08-07T15:57:40;2.33;;;1.10;;
82372;SDS011;72000;42.828;23.382;2023-08-07T16:00:06;2.10;;;1.20;;
82372;SDS011;72000;42.828;23.382;2023-08-07T16:02:33;3.13;;;1.20;;
82372;SDS011;72000;42.828;23.382;2023-08-07T16:04:58;2.78;;;1.25;;
82372;SDS011;72000;42.828;23.382;2023-08-07T16:07:24;2.55;;;1.17;;
82372;SDS011;72000;42.828;23.382;2023-08-07T16:09:50;2.60;;;1.20;;
82372;SDS011;72000;42.828;23.382;2023-08-07T16:12:16;1.92;;;1.10;;
82372;SDS011;72000;42.828;23.382;2023-08-07T16:14:45;4.10;;;1.30;;
82372;SDS011;72000;42.828;23.382;2023-08-07T16:17:13;3.17;;;1.30;;
82372;SDS011;72000;42.828;23.382;2023-08-07T16:19:39;1.95;;;1.10;;
82372;SDS011;72000;42.828;23.382;2023-08-07T16:22:04;1.95;;;1.10;;